sensor_id;sensor_type;location;lat;lon;timestamp;P1;durP1;ratioP1;P2;durP2;ratioP2
40088;SDS011;25793;55.706;13.186;2022-09-09T00:02:19;366.40;;;337.45;;
40088;SDS011;25793;55.706;13.186;2022-09-09T00:12:45;374.65;;;344.75;;
40088;SDS011;25793;55.706;13.186;2022-09-09T00:15:25;367.90;;;338.33;;
40088;SDS011;25793;55.706;13.186;2022-09-09T00:20:47;372.20;;;341.95;;
40088;SDS011;25793;55.706;13.186;2022-09-09T00:23:25;378.55;;;347.80;;
40088;SDS011;25793;55.706;13.186;2022-09-09T00:28:28;390.75;;;359.15;;
40088;SDS011;25793;55.706;13.186;2022-09-09T00:31:10;390.70;;;358.85;;
40088;SDS011;25793;55.706;13.186;2022-09-09T00:33:39;390.00;;;358.17;;
40088;SDS011;25793;55.706;13.186;2022-09-09T00:36:09;395.38;;;363.20;;
40088;SDS011;25793;55.706;13.186;2022-09-09T00:38:42;391.25;;;359.55;;
40088;SDS011;25793;55.706;13.186;2022-09-09T00:41:20;385.85;;;354.95;;
40088;SDS011;25793;55.706;13.186;2022-09-09T00:44:03;379.13;;;348.47;;
40088;SDS011;25793;55.706;13.186;2022-09-09T00:46:56;375.95;;;346.38;;
40088;SDS011;25793;55.706;13.186;2022-09-09T00:58:16;394.20;;;362.35;;
40088;SDS011;25793;55.706;13.186;2022-09-09T01:00:47;393.15;;;361.25;;
40088;SDS011;25793;55.706;13.186;2022-09-09T01:06:12;388.15;;;356.48;;
40088;SDS011;25793;55.706;13.186;2022-09-09T01:11:42;400.42;;;367.60;;
40088;SDS011;25793;55.706;13.186;2022-09-09T01:17:14;390.40;;;358.60;;
40088;SDS011;25793;55.706;13.186;2022-09-09T01:28:27;398.17;;;365.10;;
40088;SDS011;25793;55.706;13.186;2022-09-09T01:31:01;403.15;;;369.95;;
40088;SDS011;25793;55.706;13.186;2022-09-09T01:33:37;388.77;;;356.50;;
40088;SDS011;25793;55.706;13.186;2022-09-09T01:36:12;382.15;;;350.75;;
40088;SDS011;25793;55.706;13.186;2022-09-09T01:38:48;389.63;;;357.77;;
40088;SDS011;25793;55.706;13.186;2022-09-09T01:41:16;384.15;;;352.75;;
40088;SDS011;25793;55.706;13.186;2022-09-09T01:43:50;391.88;;;359.92;;
40088;SDS011;25793;55.706;13.186;2022-09-09T01:46:18;389.48;;;357.20;;
40088;SDS011;25793;55.706;13.186;2022-09-09T01:48:48;399.27;;;366.58;;
40088;SDS011;25793;55.706;13.186;2022-09-09T01:51:17;397.55;;;364.73;;
40088;SDS011;25793;55.706;13.186;2022-09-09T01:53:44;397.55;;;364.60;;
40088;SDS011;25793;55.706;13.186;2022-09-09T02:02:17;396.73;;;363.63;;
40088;SDS011;25793;55.706;13.186;2022-09-09T02:05:43;389.80;;;357.43;;
40088;SDS011;25793;55.706;13.186;2022-09-09T02:08:05;392.50;;;360.20;;
40088;SDS011;25793;55.706;13.186;2022-09-09T02:10:51;403.60;;;370.20;;
40088;SDS011;25793;55.706;13.186;2022-09-09T02:13:35;382.88;;;351.35;;
40088;SDS011;25793;55.706;13.186;2022-09-09T02:16:08;388.35;;;356.23;;
40088;SDS011;25793;55.706;13.186;2022-09-09T02:18:45;398.60;;;365.90;;
40088;SDS011;25793;55.706;13.186;2022-09-09T02:21:29;386.05;;;353.65;;
40088;SDS011;25793;55.706;13.186;2022-09-09T02:23:58;400.23;;;367.13;;
40088;SDS011;25793;55.706;13.186;2022-09-09T02:26:34;398.45;;;365.38;;
40088;SDS011;25793;55.706;13.186;2022-09-09T02:29:10;399.05;;;365.88;;
40088;SDS011;25793;55.706;13.186;2022-09-09T02:31:41;402.73;;;369.10;;
40088;SDS011;25793;55.706;13.186;2022-09-09T02:34:16;405.95;;;372.33;;
40088;SDS011;25793;55.706;13.186;2022-09-09T02:36:47;398.83;;;365.60;;
40088;SDS011;25793;55.706;13.186;2022-09-09T02:39:15;398.20;;;365.15;;
40088;SDS011;25793;55.706;13.186;2022-09-09T02:41:42;399.05;;;366.25;;
40088;SDS011;25793;55.706;13.186;2022-09-09T02:44:13;391.88;;;359.38;;
40088;SDS011;25793;55.706;13.186;2022-09-09T02:46:59;387.88;;;356.35;;
40088;SDS011;25793;55.706;13.186;2022-09-09T02:52:06;397.45;;;365.23;;
40088;SDS011;25793;55.706;13.186;2022-09-09T02:54:39;390.15;;;358.33;;
40088;SDS011;25793;55.706;13.186;2022-09-09T02:57:16;401.63;;;368.50;;
40088;SDS011;25793;55.706;13.186;2022-09-09T02:59:48;384.60;;;352.25;;
40088;SDS011;25793;55.706;13.186;2022-09-09T03:02:16;380.88;;;349.48;;
40088;SDS011;25793;55.706;13.186;2022-09-09T03:04:46;397.63;;;365.67;;
40088;SDS011;25793;55.706;13.186;2022-09-09T03:07:20;393.67;;;361.30;;
40088;SDS011;25793;55.706;13.186;2022-09-09T03:09:49;392.15;;;360.10;;
40088;SDS011;25793;55.706;13.186;2022-09-09T03:12:16;393.20;;;360.80;;
40088;SDS011;25793;55.706;13.186;2022-09-09T03:14:43;383.35;;;351.75;;
40088;SDS011;25793;55.706;13.186;2022-09-09T03:17:11;370.83;;;340.23;;
40088;SDS011;25793;55.706;13.186;2022-09-09T03:19:45;371.88;;;341.38;;
40088;SDS011;25793;55.706;13.186;2022-09-09T03:22:14;380.92;;;350.02;;
40088;SDS011;25793;55.706;13.186;2022-09-09T03:24:42;379.80;;;349.08;;
40088;SDS011;25793;55.706;13.186;2022-09-09T03:27:09;397.13;;;365.10;;
40088;SDS011;25793;55.706;13.186;2022-09-09T03:29:37;386.85;;;355.25;;
40088;SDS011;25793;55.706;13.186;2022-09-09T03:32:07;389.27;;;357.25;;
40088;SDS011;25793;55.706;13.186;2022-09-09T03:34:37;381.43;;;350.00;;
40088;SDS011;25793;55.706;13.186;2022-09-09T03:37:09;398.23;;;366.20;;
40088;SDS011;25793;55.706;13.186;2022-09-09T03:39:36;394.10;;;361.58;;
40088;SDS011;25793;55.706;13.186;2022-09-09T03:42:03;383.80;;;352.45;;
40088;SDS011;25793;55.706;13.186;2022-09-09T03:44:31;391.38;;;359.25;;
40088;SDS011;25793;55.706;13.186;2022-09-09T03:46:57;384.58;;;352.30;;
40088;SDS011;25793;55.706;13.186;2022-09-09T03:49:27;377.88;;;346.38;;
40088;SDS011;25793;55.706;13.186;2022-09-09T03:51:55;382.02;;;350.58;;
40088;SDS011;25793;55.706;13.186;2022-09-09T03:54:24;367.75;;;337.27;;
40088;SDS011;25793;55.706;13.186;2022-09-09T03:56:51;358.40;;;327.85;;
40088;SDS011;25793;55.706;13.186;2022-09-09T03:59:18;389.90;;;355.60;;
40088;SDS011;25793;55.706;13.186;2022-09-09T04:01:46;372.83;;;340.93;;
40088;SDS011;25793;55.706;13.186;2022-09-09T04:04:13;368.33;;;336.93;;
40088;SDS011;25793;55.706;13.186;2022-09-09T04:06:40;373.90;;;342.25;;
40088;SDS011;25793;55.706;13.186;2022-09-09T04:09:06;375.75;;;343.15;;
40088;SDS011;25793;55.706;13.186;2022-09-09T04:11:33;386.95;;;354.00;;
40088;SDS011;25793;55.706;13.186;2022-09-09T04:14:00;386.67;;;353.67;;
40088;SDS011;25793;55.706;13.186;2022-09-09T04:16:29;379.67;;;347.23;;
40088;SDS011;25793;55.706;13.186;2022-09-09T04:18:55;378.27;;;345.75;;
40088;SDS011;25793;55.706;13.186;2022-09-09T04:21:22;381.95;;;348.95;;
40088;SDS011;25793;55.706;13.186;2022-09-09T04:23:49;380.45;;;348.15;;
40088;SDS011;25793;55.706;13.186;2022-09-09T04:26:16;400.33;;;366.13;;
40088;SDS011;25793;55.706;13.186;2022-09-09T04:28:44;396.08;;;362.80;;
40088;SDS011;25793;55.706;13.186;2022-09-09T04:31:17;381.92;;;349.60;;
40088;SDS011;25793;55.706;13.186;2022-09-09T04:33:47;383.80;;;351.77;;
40088;SDS011;25793;55.706;13.186;2022-09-09T04:36:15;378.17;;;345.88;;
40088;SDS011;25793;55.706;13.186;2022-09-09T04:38:45;376.05;;;343.52;;
40088;SDS011;25793;55.706;13.186;2022-09-09T04:41:13;368.33;;;335.80;;
40088;SDS011;25793;55.706;13.186;2022-09-09T04:43:42;383.77;;;348.63;;
40088;SDS011;25793;55.706;13.186;2022-09-09T04:46:10;368.40;;;335.88;;
40088;SDS011;25793;55.706;13.186;2022-09-09T04:48:37;370.02;;;337.67;;
40088;SDS011;25793;55.706;13.186;2022-09-09T04:51:08;389.57;;;356.57;;
40088;SDS011;25793;55.706;13.186;2022-09-09T04:53:37;384.90;;;351.83;;
40088;SDS011;25793;55.706;13.186;2022-09-09T04:56:11;392.45;;;358.83;;
40088;SDS011;25793;55.706;13.186;2022-09-09T04:58:43;385.67;;;352.70;;
40088;SDS011;25793;55.706;13.186;2022-09-09T05:01:15;377.73;;;344.92;;
40088;SDS011;25793;55.706;13.186;2022-09-09T05:03:45;377.38;;;344.35;;
40088;SDS011;25793;55.706;13.186;2022-09-09T05:06:19;369.02;;;336.63;;
40088;SDS011;25793;55.706;13.186;2022-09-09T05:08:50;369.15;;;336.90;;
40088;SDS011;25793;55.706;13.186;2022-09-09T05:11:25;381.73;;;349.05;;
40088;SDS011;25793;55.706;13.186;2022-09-09T05:14:00;364.63;;;332.52;;
40088;SDS011;25793;55.706;13.186;2022-09-09T05:16:29;354.35;;;322.90;;
40088;SDS011;25793;55.706;13.186;2022-09-09T05:18:57;391.83;;;358.50;;
40088;SDS011;25793;55.706;13.186;2022-09-09T05:21:24;382.08;;;349.33;;
40088;SDS011;25793;55.706;13.186;2022-09-09T05:23:53;399.25;;;365.65;;
40088;SDS011;25793;55.706;13.186;2022-09-09T05:26:21;394.20;;;360.80;;
40088;SDS011;25793;55.706;13.186;2022-09-09T05:28:51;378.13;;;345.35;;
40088;SDS011;25793;55.706;13.186;2022-09-09T05:31:18;376.30;;;343.75;;
40088;SDS011;25793;55.706;13.186;2022-09-09T05:33:48;371.60;;;340.00;;
40088;SDS011;25793;55.706;13.186;2022-09-09T05:36:16;378.75;;;346.50;;
40088;SDS011;25793;55.706;13.186;2022-09-09T05:38:46;336.52;;;306.15;;
40088;SDS011;25793;55.706;13.186;2022-09-09T05:41:14;362.97;;;331.37;;
40088;SDS011;25793;55.706;13.186;2022-09-09T05:43:43;371.50;;;339.95;;
40088;SDS011;25793;55.706;13.186;2022-09-09T05:46:12;375.80;;;343.70;;
40088;SDS011;25793;55.706;13.186;2022-09-09T05:48:44;359.08;;;327.52;;
40088;SDS011;25793;55.706;13.186;2022-09-09T05:51:17;362.17;;;330.27;;
40088;SDS011;25793;55.706;13.186;2022-09-09T05:53:48;351.67;;;320.48;;
40088;SDS011;25793;55.706;13.186;2022-09-09T05:56:16;348.77;;;317.87;;
40088;SDS011;25793;55.706;13.186;2022-09-09T05:58:51;338.23;;;308.25;;
40088;SDS011;25793;55.706;13.186;2022-09-09T06:01:22;349.85;;;319.52;;
40088;SDS011;25793;55.706;13.186;2022-09-09T06:03:51;334.00;;;304.77;;
40088;SDS011;25793;55.706;13.186;2022-09-09T06:06:26;356.80;;;325.77;;
40088;SDS011;25793;55.706;13.186;2022-09-09T06:08:58;351.80;;;320.90;;
40088;SDS011;25793;55.706;13.186;2022-09-09T06:11:30;360.93;;;329.30;;
40088;SDS011;25793;55.706;13.186;2022-09-09T06:13:58;378.27;;;345.65;;
40088;SDS011;25793;55.706;13.186;2022-09-09T06:16:28;364.27;;;332.33;;
40088;SDS011;25793;55.706;13.186;2022-09-09T06:18:56;352.38;;;320.65;;
40088;SDS011;25793;55.706;13.186;2022-09-09T06:21:25;356.20;;;324.52;;
40088;SDS011;25793;55.706;13.186;2022-09-09T06:23:54;339.63;;;308.98;;
40088;SDS011;25793;55.706;13.186;2022-09-09T06:26:27;348.35;;;317.33;;
40088;SDS011;25793;55.706;13.186;2022-09-09T06:28:57;342.25;;;311.25;;
40088;SDS011;25793;55.706;13.186;2022-09-09T06:31:25;350.67;;;319.57;;
40088;SDS011;25793;55.706;13.186;2022-09-09T06:34:00;353.98;;;323.10;;
40088;SDS011;25793;55.706;13.186;2022-09-09T06:36:30;346.63;;;315.73;;
40088;SDS011;25793;55.706;13.186;2022-09-09T06:38:59;346.85;;;316.25;;
40088;SDS011;25793;55.706;13.186;2022-09-09T06:41:27;341.33;;;311.10;;
40088;SDS011;25793;55.706;13.186;2022-09-09T06:43:55;334.88;;;304.67;;
40088;SDS011;25793;55.706;13.186;2022-09-09T06:46:31;352.27;;;321.23;;
40088;SDS011;25793;55.706;13.186;2022-09-09T06:49:00;349.67;;;318.73;;
40088;SDS011;25793;55.706;13.186;2022-09-09T06:51:28;360.33;;;329.38;;
40088;SDS011;25793;55.706;13.186;2022-09-09T06:53:59;366.58;;;334.95;;
40088;SDS011;25793;55.706;13.186;2022-09-09T06:56:33;360.63;;;329.48;;
40088;SDS011;25793;55.706;13.186;2022-09-09T06:59:07;350.10;;;319.25;;
40088;SDS011;25793;55.706;13.186;2022-09-09T07:01:36;357.55;;;326.45;;
40088;SDS011;25793;55.706;13.186;2022-09-09T07:04:09;362.60;;;331.13;;
40088;SDS011;25793;55.706;13.186;2022-09-09T07:06:40;350.40;;;319.50;;
40088;SDS011;25793;55.706;13.186;2022-09-09T07:09:16;343.23;;;312.92;;
40088;SDS011;25793;55.706;13.186;2022-09-09T07:11:47;339.30;;;309.23;;
40088;SDS011;25793;55.706;13.186;2022-09-09T07:14:17;343.27;;;313.27;;
40088;SDS011;25793;55.706;13.186;2022-09-09T07:16:47;343.23;;;313.23;;
40088;SDS011;25793;55.706;13.186;2022-09-09T07:19:15;341.00;;;311.20;;
40088;SDS011;25793;55.706;13.186;2022-09-09T07:21:44;341.67;;;311.30;;
40088;SDS011;25793;55.706;13.186;2022-09-09T07:24:13;350.77;;;320.13;;
40088;SDS011;25793;55.706;13.186;2022-09-09T07:26:41;353.13;;;322.45;;
40088;SDS011;25793;55.706;13.186;2022-09-09T07:29:08;340.77;;;310.48;;
40088;SDS011;25793;55.706;13.186;2022-09-09T07:31:35;358.27;;;326.65;;
40088;SDS011;25793;55.706;13.186;2022-09-09T07:34:08;347.25;;;316.35;;
40088;SDS011;25793;55.706;13.186;2022-09-09T07:36:38;343.00;;;312.48;;
40088;SDS011;25793;55.706;13.186;2022-09-09T07:39:11;341.17;;;310.27;;
40088;SDS011;25793;55.706;13.186;2022-09-09T07:41:47;347.20;;;315.88;;
40088;SDS011;25793;55.706;13.186;2022-09-09T07:44:18;345.60;;;314.10;;
40088;SDS011;25793;55.706;13.186;2022-09-09T07:47:07;354.05;;;322.15;;
40088;SDS011;25793;55.706;13.186;2022-09-09T07:49:38;350.50;;;319.25;;
40088;SDS011;25793;55.706;13.186;2022-09-09T07:52:07;348.53;;;317.13;;
40088;SDS011;25793;55.706;13.186;2022-09-09T07:54:34;352.37;;;320.97;;
40088;SDS011;25793;55.706;13.186;2022-09-09T07:57:04;357.10;;;324.95;;
40088;SDS011;25793;55.706;13.186;2022-09-09T07:59:33;351.17;;;319.77;;
40088;SDS011;25793;55.706;13.186;2022-09-09T08:02:01;351.63;;;319.80;;
40088;SDS011;25793;55.706;13.186;2022-09-09T08:04:31;339.55;;;308.95;;
40088;SDS011;25793;55.706;13.186;2022-09-09T08:06:58;362.17;;;330.38;;
40088;SDS011;25793;55.706;13.186;2022-09-09T08:09:29;339.10;;;307.85;;
40088;SDS011;25793;55.706;13.186;2022-09-09T08:12:31;360.13;;;327.83;;
40088;SDS011;25793;55.706;13.186;2022-09-09T08:15:02;365.80;;;333.20;;
40088;SDS011;25793;55.706;13.186;2022-09-09T08:17:31;363.42;;;330.75;;
40088;SDS011;25793;55.706;13.186;2022-09-09T08:20:03;375.90;;;341.50;;
40088;SDS011;25793;55.706;13.186;2022-09-09T08:22:32;354.25;;;322.35;;
40088;SDS011;25793;55.706;13.186;2022-09-09T08:24:58;354.77;;;322.67;;
40088;SDS011;25793;55.706;13.186;2022-09-09T08:27:25;356.38;;;324.27;;
40088;SDS011;25793;55.706;13.186;2022-09-09T08:29:53;352.33;;;320.95;;
40088;SDS011;25793;55.706;13.186;2022-09-09T08:32:20;354.00;;;322.20;;
40088;SDS011;25793;55.706;13.186;2022-09-09T08:34:48;352.77;;;321.47;;
40088;SDS011;25793;55.706;13.186;2022-09-09T08:37:21;356.70;;;325.20;;
40088;SDS011;25793;55.706;13.186;2022-09-09T08:39:48;349.90;;;319.17;;
40088;SDS011;25793;55.706;13.186;2022-09-09T08:42:28;364.95;;;333.67;;
40088;SDS011;25793;55.706;13.186;2022-09-09T08:45:09;358.92;;;327.88;;
40088;SDS011;25793;55.706;13.186;2022-09-09T08:50:19;349.52;;;319.33;;
40088;SDS011;25793;55.706;13.186;2022-09-09T08:55:37;336.48;;;307.33;;
40088;SDS011;25793;55.706;13.186;2022-09-09T08:58:13;340.88;;;311.58;;
40088;SDS011;25793;55.706;13.186;2022-09-09T09:06:50;329.80;;;301.17;;
40088;SDS011;25793;55.706;13.186;2022-09-09T09:12:11;342.40;;;311.90;;
40088;SDS011;25793;55.706;13.186;2022-09-09T09:14:45;332.90;;;303.90;;
40088;SDS011;25793;55.706;13.186;2022-09-09T09:17:21;329.20;;;300.48;;
40088;SDS011;25793;55.706;13.186;2022-09-09T09:19:51;295.30;;;269.67;;
40088;SDS011;25793;55.706;13.186;2022-09-09T09:23:06;288.67;;;263.55;;
40088;SDS011;25793;55.706;13.186;2022-09-09T09:27:57;250.68;;;230.07;;
40088;SDS011;25793;55.706;13.186;2022-09-09T09:30:35;249.70;;;230.07;;
40088;SDS011;25793;55.706;13.186;2022-09-09T09:35:45;270.65;;;249.13;;
40088;SDS011;25793;55.706;13.186;2022-09-09T09:38:18;280.60;;;258.60;;
40088;SDS011;25793;55.706;13.186;2022-09-09T09:41:08;269.65;;;248.50;;
40088;SDS011;25793;55.706;13.186;2022-09-09T09:43:36;275.25;;;253.45;;
40088;SDS011;25793;55.706;13.186;2022-09-09T09:46:19;277.40;;;255.40;;
40088;SDS011;25793;55.706;13.186;2022-09-09T09:49:00;278.17;;;256.17;;
40088;SDS011;25793;55.706;13.186;2022-09-09T09:51:29;264.77;;;243.77;;
40088;SDS011;25793;55.706;13.186;2022-09-09T09:54:09;275.50;;;253.90;;
40088;SDS011;25793;55.706;13.186;2022-09-09T09:56:41;279.27;;;257.00;;
40088;SDS011;25793;55.706;13.186;2022-09-09T10:02:14;276.88;;;254.68;;
40088;SDS011;25793;55.706;13.186;2022-09-09T10:04:45;277.40;;;254.90;;
40088;SDS011;25793;55.706;13.186;2022-09-09T10:07:17;265.00;;;243.20;;
40088;SDS011;25793;55.706;13.186;2022-09-09T10:09:46;260.33;;;239.63;;
40088;SDS011;25793;55.706;13.186;2022-09-09T10:18:15;254.40;;;235.40;;
40088;SDS011;25793;55.706;13.186;2022-09-09T10:28:54;194.07;;;180.45;;
40088;SDS011;25793;55.706;13.186;2022-09-09T10:31:38;195.82;;;181.88;;
40088;SDS011;25793;55.706;13.186;2022-09-09T10:36:57;176.13;;;164.18;;
40088;SDS011;25793;55.706;13.186;2022-09-09T10:39:35;170.25;;;158.55;;
40088;SDS011;25793;55.706;13.186;2022-09-09T10:42:15;159.27;;;148.77;;
40088;SDS011;25793;55.706;13.186;2022-09-09T10:56:18;138.70;;;130.30;;
40088;SDS011;25793;55.706;13.186;2022-09-09T10:58:55;119.55;;;112.82;;
40088;SDS011;25793;55.706;13.186;2022-09-09T11:01:33;125.43;;;118.40;;
40088;SDS011;25793;55.706;13.186;2022-09-09T11:04:15;138.00;;;130.00;;
40088;SDS011;25793;55.706;13.186;2022-09-09T11:06:49;119.85;;;113.43;;
40088;SDS011;25793;55.706;13.186;2022-09-09T11:09:19;126.70;;;119.82;;
40088;SDS011;25793;55.706;13.186;2022-09-09T11:11:51;143.00;;;134.90;;
40088;SDS011;25793;55.706;13.186;2022-09-09T11:16:56;133.38;;;125.90;;
40088;SDS011;25793;55.706;13.186;2022-09-09T11:22:03;159.13;;;149.82;;
40088;SDS011;25793;55.706;13.186;2022-09-09T11:30:20;163.18;;;153.65;;
40088;SDS011;25793;55.706;13.186;2022-09-09T11:36:28;182.77;;;171.85;;
40088;SDS011;25793;55.706;13.186;2022-09-09T11:41:33;164.23;;;153.73;;
40088;SDS011;25793;55.706;13.186;2022-09-09T11:44:13;141.23;;;133.00;;
40088;SDS011;25793;55.706;13.186;2022-09-09T11:46:48;154.18;;;145.27;;
40088;SDS011;25793;55.706;13.186;2022-09-09T11:51:54;186.15;;;174.98;;
40088;SDS011;25793;55.706;13.186;2022-09-09T11:54:29;173.20;;;162.32;;
40088;SDS011;25793;55.706;13.186;2022-09-09T11:56:57;202.07;;;189.07;;
40088;SDS011;25793;55.706;13.186;2022-09-09T11:59:28;214.68;;;200.60;;
40088;SDS011;25793;55.706;13.186;2022-09-09T12:09:28;286.20;;;266.55;;
40088;SDS011;25793;55.706;13.186;2022-09-09T12:12:21;265.08;;;246.35;;
40088;SDS011;25793;55.706;13.186;2022-09-09T12:17:48;260.88;;;243.18;;
40088;SDS011;25793;55.706;13.186;2022-09-09T12:20:20;256.33;;;238.88;;
40088;SDS011;25793;55.706;13.186;2022-09-09T12:29:14;226.63;;;212.10;;
40088;SDS011;25793;55.706;13.186;2022-09-09T12:31:54;201.10;;;188.35;;
40088;SDS011;25793;55.706;13.186;2022-09-09T12:34:41;199.07;;;187.02;;
40088;SDS011;25793;55.706;13.186;2022-09-09T12:40:24;179.38;;;168.48;;
40088;SDS011;25793;55.706;13.186;2022-09-09T12:42:53;164.85;;;154.95;;
40088;SDS011;25793;55.706;13.186;2022-09-09T12:45:22;160.03;;;150.63;;
40088;SDS011;25793;55.706;13.186;2022-09-09T12:50:34;160.60;;;151.00;;
40088;SDS011;25793;55.706;13.186;2022-09-09T12:53:10;138.48;;;130.60;;
40088;SDS011;25793;55.706;13.186;2022-09-09T12:55:52;103.88;;;98.28;;
40088;SDS011;25793;55.706;13.186;2022-09-09T12:58:23;99.55;;;94.13;;
40088;SDS011;25793;55.706;13.186;2022-09-09T13:00:52;84.45;;;79.90;;
40088;SDS011;25793;55.706;13.186;2022-09-09T13:03:22;81.85;;;77.38;;
40088;SDS011;25793;55.706;13.186;2022-09-09T13:05:49;83.38;;;78.72;;
40088;SDS011;25793;55.706;13.186;2022-09-09T13:08:17;78.77;;;74.47;;
40088;SDS011;25793;55.706;13.186;2022-09-09T13:10:50;77.22;;;73.10;;
40088;SDS011;25793;55.706;13.186;2022-09-09T13:13:28;86.13;;;81.47;;
40088;SDS011;25793;55.706;13.186;2022-09-09T13:16:02;66.70;;;62.97;;
40088;SDS011;25793;55.706;13.186;2022-09-09T13:18:33;37.15;;;35.05;;
40088;SDS011;25793;55.706;13.186;2022-09-09T13:21:02;26.00;;;24.48;;
40088;SDS011;25793;55.706;13.186;2022-09-09T13:23:30;16.63;;;15.53;;
40088;SDS011;25793;55.706;13.186;2022-09-09T13:25:59;9.65;;;8.95;;
40088;SDS011;25793;55.706;13.186;2022-09-09T13:28:29;7.32;;;6.63;;
40088;SDS011;25793;55.706;13.186;2022-09-09T13:31:00;6.22;;;5.68;;
40088;SDS011;25793;55.706;13.186;2022-09-09T13:33:33;5.68;;;5.10;;
40088;SDS011;25793;55.706;13.186;2022-09-09T13:36:06;5.32;;;4.82;;
40088;SDS011;25793;55.706;13.186;2022-09-09T13:38:36;5.15;;;4.30;;
40088;SDS011;25793;55.706;13.186;2022-09-09T13:41:42;6.05;;;3.90;;
40088;SDS011;25793;55.706;13.186;2022-09-09T13:44:24;4.30;;;3.90;;
40088;SDS011;25793;55.706;13.186;2022-09-09T13:47:28;5.05;;;3.67;;
40088;SDS011;25793;55.706;13.186;2022-09-09T13:49:49;5.68;;;3.70;;
40088;SDS011;25793;55.706;13.186;2022-09-09T13:52:16;4.88;;;4.05;;
40088;SDS011;25793;55.706;13.186;2022-09-09T13:54:48;5.10;;;4.10;;
40088;SDS011;25793;55.706;13.186;2022-09-09T13:57:21;5.15;;;3.70;;
40088;SDS011;25793;55.706;13.186;2022-09-09T13:59:53;4.32;;;3.35;;
40088;SDS011;25793;55.706;13.186;2022-09-09T14:02:32;4.10;;;3.67;;
40088;SDS011;25793;55.706;13.186;2022-09-09T14:05:00;5.28;;;3.85;;
40088;SDS011;25793;55.706;13.186;2022-09-09T14:07:26;4.20;;;3.72;;
40088;SDS011;25793;55.706;13.186;2022-09-09T14:09:55;4.10;;;3.13;;
40088;SDS011;25793;55.706;13.186;2022-09-09T14:12:22;5.07;;;4.25;;
40088;SDS011;25793;55.706;13.186;2022-09-09T14:14:50;4.68;;;3.50;;
40088;SDS011;25793;55.706;13.186;2022-09-09T14:17:17;4.20;;;3.20;;
40088;SDS011;25793;55.706;13.186;2022-09-09T14:19:43;5.68;;;4.25;;
40088;SDS011;25793;55.706;13.186;2022-09-09T14:22:13;5.03;;;3.97;;
40088;SDS011;25793;55.706;13.186;2022-09-09T14:24:40;5.22;;;4.60;;
40088;SDS011;25793;55.706;13.186;2022-09-09T14:27:07;4.38;;;3.88;;
40088;SDS011;25793;55.706;13.186;2022-09-09T14:29:34;4.97;;;4.47;;
40088;SDS011;25793;55.706;13.186;2022-09-09T14:32:00;5.82;;;5.28;;
40088;SDS011;25793;55.706;13.186;2022-09-09T14:34:29;5.38;;;4.82;;
40088;SDS011;25793;55.706;13.186;2022-09-09T14:36:58;5.32;;;4.82;;
40088;SDS011;25793;55.706;13.186;2022-09-09T14:39:25;4.20;;;3.78;;
40088;SDS011;25793;55.706;13.186;2022-09-09T14:41:52;4.13;;;3.63;;
40088;SDS011;25793;55.706;13.186;2022-09-09T14:44:19;5.80;;;3.75;;
40088;SDS011;25793;55.706;13.186;2022-09-09T14:46:45;6.03;;;5.45;;
40088;SDS011;25793;55.706;13.186;2022-09-09T14:49:12;5.60;;;5.13;;
40088;SDS011;25793;55.706;13.186;2022-09-09T14:51:39;9.48;;;8.77;;
40088;SDS011;25793;55.706;13.186;2022-09-09T14:54:05;5.43;;;5.03;;
40088;SDS011;25793;55.706;13.186;2022-09-09T14:56:32;5.32;;;4.82;;
40088;SDS011;25793;55.706;13.186;2022-09-09T14:59:03;5.90;;;4.80;;
40088;SDS011;25793;55.706;13.186;2022-09-09T15:01:30;5.60;;;4.22;;
40088;SDS011;25793;55.706;13.186;2022-09-09T15:03:59;5.70;;;4.40;;
40088;SDS011;25793;55.706;13.186;2022-09-09T15:06:27;5.25;;;4.30;;
40088;SDS011;25793;55.706;13.186;2022-09-09T15:08:56;5.05;;;4.10;;
40088;SDS011;25793;55.706;13.186;2022-09-09T15:11:26;5.90;;;4.35;;
40088;SDS011;25793;55.706;13.186;2022-09-09T15:13:58;5.05;;;4.57;;
40088;SDS011;25793;55.706;13.186;2022-09-09T15:16:25;6.47;;;5.43;;
40088;SDS011;25793;55.706;13.186;2022-09-09T15:18:55;4.05;;;3.60;;
40088;SDS011;25793;55.706;13.186;2022-09-09T15:21:24;5.68;;;4.47;;
40088;SDS011;25793;55.706;13.186;2022-09-09T15:23:52;6.30;;;5.80;;
40088;SDS011;25793;55.706;13.186;2022-09-09T15:26:19;5.00;;;4.55;;
40088;SDS011;25793;55.706;13.186;2022-09-09T15:28:47;6.10;;;5.70;;
40088;SDS011;25793;55.706;13.186;2022-09-09T15:31:20;8.50;;;7.72;;
40088;SDS011;25793;55.706;13.186;2022-09-09T15:33:55;6.55;;;6.05;;
40088;SDS011;25793;55.706;13.186;2022-09-09T15:36:34;6.55;;;5.95;;
40088;SDS011;25793;55.706;13.186;2022-09-09T15:39:03;8.32;;;7.60;;
40088;SDS011;25793;55.706;13.186;2022-09-09T15:41:31;12.05;;;11.23;;
40088;SDS011;25793;55.706;13.186;2022-09-09T15:43:58;9.30;;;8.60;;
40088;SDS011;25793;55.706;13.186;2022-09-09T15:46:30;9.10;;;8.32;;
40088;SDS011;25793;55.706;13.186;2022-09-09T15:49:08;9.17;;;8.27;;
40088;SDS011;25793;55.706;13.186;2022-09-09T15:51:37;9.65;;;8.95;;
40088;SDS011;25793;55.706;13.186;2022-09-09T15:54:11;10.57;;;9.57;;
40088;SDS011;25793;55.706;13.186;2022-09-09T15:56:39;10.35;;;9.55;;
40088;SDS011;25793;55.706;13.186;2022-09-09T15:59:07;8.18;;;7.47;;
40088;SDS011;25793;55.706;13.186;2022-09-09T16:01:33;11.05;;;10.27;;
40088;SDS011;25793;55.706;13.186;2022-09-09T16:04:01;9.00;;;8.38;;
40088;SDS011;25793;55.706;13.186;2022-09-09T16:06:29;13.50;;;12.60;;
40088;SDS011;25793;55.706;13.186;2022-09-09T16:08:56;15.75;;;14.52;;
40088;SDS011;25793;55.706;13.186;2022-09-09T16:11:25;8.52;;;7.82;;
40088;SDS011;25793;55.706;13.186;2022-09-09T16:14:03;9.75;;;8.95;;
40088;SDS011;25793;55.706;13.186;2022-09-09T16:16:31;11.75;;;10.85;;
40088;SDS011;25793;55.706;13.186;2022-09-09T16:19:02;16.02;;;14.93;;
40088;SDS011;25793;55.706;13.186;2022-09-09T16:21:33;19.60;;;18.23;;
40088;SDS011;25793;55.706;13.186;2022-09-09T16:24:01;14.85;;;13.82;;
40088;SDS011;25793;55.706;13.186;2022-09-09T16:26:30;18.50;;;17.30;;
40088;SDS011;25793;55.706;13.186;2022-09-09T16:28:58;29.10;;;27.27;;
40088;SDS011;25793;55.706;13.186;2022-09-09T16:31:26;33.33;;;31.17;;
40088;SDS011;25793;55.706;13.186;2022-09-09T16:33:54;34.05;;;32.05;;
40088;SDS011;25793;55.706;13.186;2022-09-09T16:36:22;29.30;;;27.50;;
40088;SDS011;25793;55.706;13.186;2022-09-09T16:38:55;24.17;;;22.58;;
40088;SDS011;25793;55.706;13.186;2022-09-09T16:41:26;25.63;;;23.85;;
40088;SDS011;25793;55.706;13.186;2022-09-09T16:43:58;29.10;;;27.48;;